Time;durP1;ratioP1;P1;durP2;ratioP2;P2;SDS_P1;SDS_P2;PMS_P1;PMS_P2;Temp;Humidity;BMP_temperature;BMP_pressure;BME280_temperature;BME280_humidity;BME280_pressure;Samples;Min_cycle;Max_cycle;Signal;HPM_P1;HPM_P2
2022/04/01 00:01:55;;;;;;;9.32;3.50;;;;;;;;;;5095520;28;20061;-45
2022/04/01 00:04:21;;;;;;;5.65;2.38;;;;;;;;;;5113926;28;20119;-48
2022/04/01 00:06:47;;;;;;;6.55;2.10;;;;;;;;;;5114084;28;20055;-47
2022/04/01 00:09:13;;;;;;;6.38;2.40;;;;;;;;;;5113808;28;20030;-46
2022/04/01 00:11:39;;;;;;;5.50;2.55;;;;;;;;;;5113771;28;20025;-47
2022/04/01 00:14:05;;;;;;;7.90;2.30;;;;;;;;;;5113621;28;20028;-50
2022/04/01 00:16:32;;;;;;;6.60;2.25;;;;;;;;;;5113618;28;20024;-46
2022/04/01 00:18:58;;;;;;;8.25;2.45;;;;;;;;;;5113760;28;20024;-46
2022/04/01 00:21:24;;;;;;;6.55;2.20;;;;;;;;;;5113792;28;20394;-46
2022/04/01 00:23:50;;;;;;;6.75;2.03;;;;;;;;;;5113525;28;20421;-45
2022/04/01 00:26:16;;;;;;;4.85;2.15;;;;;;;;;;5113528;28;20043;-46
2022/04/01 00:28:42;;;;;;;7.50;2.30;;;;;;;;;;5113615;28;20028;-45
2022/04/01 00:31:09;;;;;;;7.28;2.03;;;;;;;;;;5113523;28;20024;-45
2022/04/01 00:33:36;;;;;;;4.70;1.95;;;;;;;;;;5113482;28;20102;-45
2022/04/01 00:36:05;;;;;;;8.88;2.33;;;;;;;;;;5113762;28;20016;-47
2022/04/01 00:38:31;;;;;;;5.88;2.47;;;;;;;;;;5113375;28;20016;-46
2022/04/01 00:40:59;;;;;;;6.40;2.70;;;;;;;;;;5113512;28;20073;-46
2022/04/01 00:43:30;;;;;;;7.28;2.65;;;;;;;;;;5113346;28;20402;-46
2022/04/01 00:46:00;;;;;;;7.63;2.60;;;;;;;;;;5113444;28;20024;-46
2022/04/01 00:48:26;;;;;;;11.00;3.15;;;;;;;;;;5113512;28;20039;-46
2022/04/01 00:50:53;;;;;;;7.15;3.53;;;;;;;;;;5113137;28;20051;-46
2022/04/01 00:53:19;;;;;;;9.95;3.55;;;;;;;;;;5114870;28;20349;-46
2022/04/01 00:55:47;;;;;;;9.52;3.08;;;;;;;;;;5117330;28;20486;-46
2022/04/01 00:58:13;;;;;;;9.13;3.45;;;;;;;;;;5117333;28;20472;-46
2022/04/01 01:00:39;;;;;;;15.30;3.15;;;;;;;;;;5117220;28;20096;-46
2022/04/01 01:03:06;;;;;;;9.55;3.10;;;;;;;;;;5117165;28;20023;-45
2022/04/01 01:05:32;;;;;;;6.00;3.17;;;;;;;;;;5117106;28;20106;-45
2022/04/01 01:07:58;;;;;;;7.63;3.22;;;;;;;;;;5117002;28;20471;-47
2022/04/01 01:10:25;;;;;;;9.63;3.13;;;;;;;;;;5117192;28;20085;-46
2022/04/01 01:12:53;;;;;;;7.30;3.20;;;;;;;;;;5116926;28;20031;-46
2022/04/01 01:15:19;;;;;;;8.75;3.42;;;;;;;;;;5116834;28;20024;-48
2022/04/01 01:17:46;;;;;;;10.82;3.58;;;;;;;;;;5116729;28;20032;-46
2022/04/01 01:20:14;;;;;;;13.30;4.25;;;;;;;;;;5116878;28;20023;-46
2022/04/01 01:22:41;;;;;;;10.23;3.30;;;;;;;;;;5116640;28;20028;-46
2022/04/01 01:25:11;;;;;;;9.70;3.55;;;;;;;;;;5117051;28;20107;-46
2022/04/01 01:27:38;;;;;;;8.25;2.95;;;;;;;;;;5116461;28;20437;-45
2022/04/01 01:30:04;;;;;;;7.32;2.72;;;;;;;;;;5116533;28;20020;-46
2022/04/01 01:32:32;;;;;;;8.65;3.70;;;;;;;;;;5116705;28;20102;-46
2022/04/01 01:34:59;;;;;;;8.40;3.20;;;;;;;;;;5116576;28;20039;-50
2022/04/01 01:37:26;;;;;;;11.27;3.80;;;;;;;;;;5116770;28;20027;-46
2022/04/01 01:39:52;;;;;;;9.35;3.67;;;;;;;;;;5116361;28;20094;-46
2022/04/01 01:42:20;;;;;;;8.80;3.75;;;;;;;;;;5116514;28;20050;-46
2022/04/01 01:44:47;;;;;;;8.57;3.60;;;;;;;;;;5097947;28;20027;-47
2022/04/01 01:47:13;;;;;;;10.45;3.97;;;;;;;;;;5116331;28;20038;-46
2022/04/01 01:54:43;;;;;;;9.18;3.83;;;;;;;;;;5097810;28;20055;-50
2022/04/01 01:55:13;;;;;;;11.68;4.28;;;;;;;;;;5116584;28;20123;-47
2022/04/01 01:57:41;;;;;;;13.15;3.65;;;;;;;;;;5116130;28;20033;-46
2022/04/01 02:00:13;;;;;;;10.50;4.13;;;;;;;;;;5116170;28;20143;-46
2022/04/01 02:02:39;;;;;;;14.48;4.28;;;;;;;;;;5115905;28;20170;-50
2022/04/01 02:05:08;;;;;;;14.77;4.20;;;;;;;;;;5114933;28;20035;-48
2022/04/01 02:07:36;;;;;;;10.77;3.75;;;;;;;;;;5115677;28;20031;-49
2022/04/01 02:10:02;;;;;;;14.93;3.88;;;;;;;;;;5115664;28;20023;-48
2022/04/01 02:12:30;;;;;;;10.18;4.03;;;;;;;;;;5115796;28;20027;-46
2022/04/01 02:14:56;;;;;;;22.13;5.13;;;;;;;;;;5115836;28;20019;-46
2022/04/01 02:17:23;;;;;;;9.45;4.10;;;;;;;;;;5115739;28;20028;-46
2022/04/01 02:19:50;;;;;;;15.38;4.95;;;;;;;;;;5115580;28;20024;-45
2022/04/01 02:22:16;;;;;;;7.53;3.97;;;;;;;;;;5096696;28;20390;-45
2022/04/01 02:24:42;;;;;;;12.02;4.40;;;;;;;;;;5115388;28;20020;-47
2022/04/01 02:27:09;;;;;;;13.98;4.40;;;;;;;;;;5115492;28;20061;-46
2022/04/01 02:29:35;;;;;;;12.68;4.78;;;;;;;;;;5115418;28;20058;-45
2022/04/01 02:32:04;;;;;;;15.13;4.93;;;;;;;;;;5115598;28;20028;-47
2022/04/01 02:34:30;;;;;;;11.80;4.55;;;;;;;;;;5115404;28;20440;-51
2022/04/01 02:36:58;;;;;;;11.13;4.18;;;;;;;;;;5115628;28;20028;-46
2022/04/01 02:39:24;;;;;;;13.80;4.65;;;;;;;;;;5115186;28;20023;-46
2022/04/01 02:41:50;;;;;;;9.63;4.28;;;;;;;;;;5115247;28;20467;-46
2022/04/01 02:44:19;;;;;;;14.02;3.90;;;;;;;;;;5115235;28;20059;-46
2022/04/01 02:46:45;;;;;;;8.88;4.18;;;;;;;;;;5115155;28;20118;-46
2022/04/01 02:49:14;;;;;;;12.40;4.68;;;;;;;;;;5115103;28;20131;-46
2022/04/01 02:51:42;;;;;;;14.38;4.10;;;;;;;;;;5096822;28;20328;-47
2022/04/01 02:54:09;;;;;;;17.38;4.10;;;;;;;;;;5114787;28;20102;-45
2022/04/01 02:56:35;;;;;;;13.27;4.40;;;;;;;;;;5115263;28;20084;-50
2022/04/01 02:59:08;;;;;;;15.55;4.30;;;;;;;;;;5114886;28;20111;-49
2022/04/01 03:01:38;;;;;;;13.65;4.25;;;;;;;;;;5115084;28;20428;-45
2022/04/01 03:04:09;;;;;;;10.77;4.28;;;;;;;;;;5114845;28;20023;-51
2022/04/01 03:06:35;;;;;;;9.43;4.07;;;;;;;;;;5114735;28;20073;-52
2022/04/01 03:09:01;;;;;;;13.50;3.70;;;;;;;;;;5114678;28;20023;-51
2022/04/01 03:11:27;;;;;;;15.65;3.53;;;;;;;;;;5115057;28;20020;-45
2022/04/01 03:13:53;;;;;;;11.27;3.80;;;;;;;;;;5114587;28;20055;-45
2022/04/01 03:16:19;;;;;;;12.13;4.03;;;;;;;;;;5114548;28;20016;-49
2022/04/01 03:18:45;;;;;;;15.82;3.80;;;;;;;;;;5114408;28;20032;-46
2022/04/01 03:21:11;;;;;;;10.70;3.53;;;;;;;;;;5114531;28;20047;-50
2022/04/01 03:23:39;;;;;;;13.90;4.20;;;;;;;;;;5095707;28;20028;-48
2022/04/01 03:26:05;;;;;;;8.00;2.95;;;;;;;;;;5114713;28;20028;-47
2022/04/01 03:28:32;;;;;;;9.32;3.22;;;;;;;;;;5114386;28;20490;-47
2022/04/01 03:30:58;;;;;;;13.63;3.30;;;;;;;;;;5112732;28;20081;-47
2022/04/01 03:33:25;;;;;;;10.55;3.20;;;;;;;;;;5113108;28;20035;-46
2022/04/01 03:35:52;;;;;;;11.40;3.65;;;;;;;;;;5114291;28;20015;-46
2022/04/01 03:38:18;;;;;;;13.00;3.58;;;;;;;;;;5114059;28;20079;-47
2022/04/01 03:40:48;;;;;;;16.75;3.40;;;;;;;;;;5114456;28;20027;-47
2022/04/01 03:43:14;;;;;;;13.40;3.63;;;;;;;;;;5114134;28;20099;-46
2022/04/01 03:45:46;;;;;;;13.93;5.07;;;;;;;;;;5114329;28;20023;-47
2022/04/01 03:48:32;;;;;;;6.28;2.38;;;;;;;;;;5113826;28;20383;-47
2022/04/01 03:50:59;;;;;;;10.50;3.30;;;;;;;;;;5099815;28;20051;-53
2022/04/01 03:53:26;;;;;;;11.13;3.00;;;;;;;;;;5113840;28;20116;-47
2022/04/01 03:55:55;;;;;;;13.75;3.30;;;;;;;;;;5113835;28;20019;-45
2022/04/01 03:58:31;;;;;;;11.43;4.90;;;;;;;;;;5114182;28;20027;-44
2022/04/01 04:00:58;;;;;;;12.18;3.00;;;;;;;;;;5113876;28;20053;-46
2022/04/01 04:03:24;;;;;;;19.92;3.60;;;;;;;;;;5113822;28;20027;-46
2022/04/01 04:05:51;;;;;;;15.73;4.13;;;;;;;;;;5114047;28;20094;-45
2022/04/01 04:08:18;;;;;;;10.38;3.45;;;;;;;;;;5113813;28;20070;-47
2022/04/01 04:10:46;;;;;;;9.82;3.13;;;;;;;;;;5113929;28;20379;-49
2022/04/01 04:13:13;;;;;;;11.73;3.03;;;;;;;;;;5113703;28;20091;-47
2022/04/01 04:15:48;;;;;;;13.68;3.75;;;;;;;;;;5113726;28;20023;-49
2022/04/01 04:18:16;;;;;;;13.02;3.50;;;;;;;;;;5113879;28;20024;-48
2022/04/01 04:21:00;;;;;;;10.27;3.38;;;;;;;;;;5113805;28;20035;-46
2022/04/01 04:23:49;;;;;;;17.73;4.40;;;;;;;;;;5113475;28;20024;-47
2022/04/01 04:26:17;;;;;;;10.50;3.25;;;;;;;;;;5031124;28;20489;-47
2022/04/01 04:28:47;;;;;;;17.63;4.50;;;;;;;;;;5033252;28;20056;-44
2022/04/01 04:31:16;;;;;;;9.82;3.55;;;;;;;;;;5035319;28;20433;-46
2022/04/01 04:33:44;;;;;;;16.05;3.80;;;;;;;;;;5035233;28;20516;-47
2022/04/01 04:36:11;;;;;;;11.90;3.50;;;;;;;;;;5035297;28;20033;-44
2022/04/01 04:38:38;;;;;;;15.27;4.13;;;;;;;;;;5034895;28;20033;-48
2022/04/01 04:41:08;;;;;;;10.98;4.28;;;;;;;;;;5034946;28;20053;-48
2022/04/01 04:43:38;;;;;;;9.38;4.28;;;;;;;;;;5034846;28;20124;-47
2022/04/01 04:46:04;;;;;;;16.20;4.22;;;;;;;;;;5034863;28;20079;-48
2022/04/01 04:48:32;;;;;;;8.00;3.45;;;;;;;;;;5034672;28;20029;-46
2022/04/01 04:50:59;;;;;;;9.63;4.25;;;;;;;;;;5034570;28;20045;-47
2022/04/01 04:53:28;;;;;;;12.05;4.60;;;;;;;;;;5034667;28;20540;-47
2022/04/01 04:55:54;;;;;;;7.97;3.55;;;;;;;;;;5035048;28;20473;-47
2022/04/01 04:58:22;;;;;;;14.07;3.85;;;;;;;;;;5034684;28;20505;-47
2022/04/01 05:00:53;;;;;;;11.88;3.45;;;;;;;;;;5034621;28;20026;-47
2022/04/01 05:03:31;;;;;;;13.63;4.20;;;;;;;;;;5078339;28;20041;-49
2022/04/01 05:05:59;;;;;;;16.35;5.93;;;;;;;;;;5117309;28;20150;-48
2022/04/01 05:08:46;;;;;;;10.55;3.97;;;;;;;;;;5098825;28;20046;-48
2022/04/01 05:11:26;;;;;;;9.13;3.60;;;;;;;;;;5117368;28;20028;-50
2022/04/01 05:13:59;;;;;;;16.93;7.77;;;;;;;;;;5117046;28;20062;-51
2022/04/01 05:16:31;;;;;;;15.68;7.88;;;;;;;;;;5116943;28;20754;-52
2022/04/01 05:19:02;;;;;;;12.15;4.25;;;;;;;;;;5117016;28;20031;-51
2022/04/01 05:21:28;;;;;;;;;;;;;;;;;;5117583;28;20036;-45
2022/04/01 05:24:01;;;;;;;9.07;3.83;;;;;;;;;;5116928;28;19990;-48
2022/04/01 05:26:38;;;;;;;12.38;5.10;;;;;;;;;;5116923;28;20036;-49
2022/04/01 05:29:07;;;;;;;20.45;6.53;;;;;;;;;;5117034;28;20386;-46
2022/04/01 05:31:37;;;;;;;15.45;5.90;;;;;;;;;;5116949;28;20016;-48
2022/04/01 05:34:13;;;;;;;13.02;3.97;;;;;;;;;;5116684;28;20015;-50
2022/04/01 05:36:40;;;;;;;13.00;3.88;;;;;;;;;;5116662;28;20027;-46
2022/04/01 05:39:06;;;;;;;9.02;3.38;;;;;;;;;;5096864;28;20441;-47
2022/04/01 05:41:33;;;;;;;11.27;3.50;;;;;;;;;;5116057;28;20032;-53
2022/04/01 05:43:59;;;;;;;12.43;4.15;;;;;;;;;;5116428;28;20501;-48
2022/04/01 05:46:26;;;;;;;10.18;3.50;;;;;;;;;;5116467;28;20058;-46
2022/04/01 05:48:55;;;;;;;10.68;4.20;;;;;;;;;;5116542;28;20036;-44
2022/04/01 05:51:21;;;;;;;15.82;5.40;;;;;;;;;;5116635;28;20487;-45
2022/04/01 05:53:48;;;;;;;11.45;3.67;;;;;;;;;;5116455;28;20036;-52
2022/04/01 05:56:14;;;;;;;6.57;2.95;;;;;;;;;;5116432;28;20020;-51
2022/04/01 05:58:42;;;;;;;10.65;4.00;;;;;;;;;;5116274;28;20494;-47
2022/04/01 06:01:47;;;;;;;15.32;3.47;;;;;;;;;;5116092;28;20028;-48
2022/04/01 06:04:16;;;;;;;13.13;4.03;;;;;;;;;;5033361;28;20021;-49
2022/04/01 06:06:43;;;;;;;8.48;3.47;;;;;;;;;;5033388;28;20063;-48
2022/04/01 06:09:15;;;;;;;11.40;4.50;;;;;;;;;;5033329;28;20037;-46
2022/04/01 06:11:50;;;;;;;14.55;4.60;;;;;;;;;;5033158;28;20040;-47
2022/04/01 06:14:31;;;;;;;11.18;4.25;;;;;;;;;;5033504;28;20048;-51
2022/04/01 06:17:03;;;;;;;7.00;3.08;;;;;;;;;;5033054;28;20112;-50
2022/04/01 06:19:29;;;;;;;;;;;;;;;;;;5033844;28;20040;-46
2022/04/01 06:22:09;;;;;;;6.55;3.03;;;;;;;;;;5033058;28;19938;-49
2022/04/01 06:24:41;;;;;;;9.40;3.45;;;;;;;;;;5033155;28;20067;-48
2022/04/01 06:27:09;;;;;;;12.48;3.88;;;;;;;;;;5033026;28;20037;-49
2022/04/01 06:29:36;;;;;;;10.73;3.88;;;;;;;;;;5033328;28;20037;-51
2022/04/01 06:32:05;;;;;;;7.35;3.40;;;;;;;;;;5033151;28;20033;-50
2022/04/01 06:34:53;;;;;;;5.25;3.35;;;;;;;;;;5058740;28;20027;-47
2022/04/01 06:37:27;;;;;;;7.40;2.72;;;;;;;;;;5115596;28;20022;-48
2022/04/01 06:40:00;;;;;;;10.15;2.90;;;;;;;;;;5115327;28;20026;-48
2022/04/01 06:42:27;;;;;;;5.22;2.20;;;;;;;;;;5115359;28;20020;-47
2022/04/01 06:44:53;;;;;;;7.15;1.70;;;;;;;;;;5115690;28;20019;-49
2022/04/01 06:47:22;;;;;;;5.43;1.85;;;;;;;;;;5115293;28;20462;-48
2022/04/01 06:49:48;;;;;;;8.25;1.77;;;;;;;;;;5115005;28;20530;-47
2022/04/01 06:52:15;;;;;;;7.57;2.10;;;;;;;;;;5115032;28;20024;-49
2022/04/01 06:54:41;;;;;;;11.57;4.35;;;;;;;;;;5115217;28;20027;-47
2022/04/01 06:57:08;;;;;;;17.50;7.43;;;;;;;;;;5115125;28;20069;-47
2022/04/01 06:59:34;;;;;;;9.52;4.13;;;;;;;;;;5115333;28;20015;-49
2022/04/01 07:02:01;;;;;;;4.28;2.50;;;;;;;;;;5114805;28;20468;-47
2022/04/01 07:04:27;;;;;;;6.50;2.17;;;;;;;;;;5115020;28;20024;-48
2022/04/01 07:06:55;;;;;;;4.90;1.70;;;;;;;;;;5114891;28;20024;-48
2022/04/01 07:09:22;;;;;;;5.28;1.80;;;;;;;;;;5114660;28;20038;-48
2022/04/01 07:11:48;;;;;;;6.78;1.77;;;;;;;;;;5115041;28;20132;-47
2022/04/01 07:14:14;;;;;;;6.28;1.55;;;;;;;;;;5114678;28;20031;-47
2022/04/01 07:16:43;;;;;;;6.07;1.88;;;;;;;;;;5114626;28;20028;-52
2022/04/01 07:19:09;;;;;;;7.07;1.60;;;;;;;;;;5114807;28;20028;-47
2022/04/01 07:21:35;;;;;;;4.15;1.30;;;;;;;;;;5114610;28;20073;-47
2022/04/01 07:24:02;;;;;;;6.60;1.25;;;;;;;;;;5114753;28;20047;-47
2022/04/01 07:26:28;;;;;;;6.93;1.80;;;;;;;;;;5114555;28;20472;-47
2022/04/01 07:28:55;;;;;;;4.88;1.40;;;;;;;;;;5114387;28;20402;-47
2022/04/01 07:34:08;;;;;;;6.47;1.88;;;;;;;;;;5114762;28;20084;-48
2022/04/01 07:36:34;;;;;;;3.15;1.52;;;;;;;;;;5114310;28;20027;-47
2022/04/01 07:39:00;;;;;;;7.93;1.27;;;;;;;;;;5114403;28;20061;-54
2022/04/01 07:41:35;;;;;;;5.22;1.40;;;;;;;;;;5114365;28;20531;-46
2022/04/01 07:44:04;;;;;;;8.75;2.08;;;;;;;;;;5114183;28;20023;-48
2022/04/01 07:46:30;;;;;;;6.50;2.70;;;;;;;;;;5114163;28;20026;-47
2022/04/01 07:48:56;;;;;;;7.88;2.55;;;;;;;;;;5113994;28;20074;-47
2022/04/01 07:51:22;;;;;;;8.02;2.92;;;;;;;;;;5113989;28;20023;-57
2022/04/01 07:53:48;;;;;;;4.20;2.42;;;;;;;;;;5114028;28;20023;-55
2022/04/01 07:56:14;;;;;;;10.50;2.50;;;;;;;;;;5114184;28;20093;-50
2022/04/01 07:58:40;;;;;;;6.72;2.80;;;;;;;;;;5114420;28;20023;-53
2022/04/01 08:01:07;;;;;;;8.73;2.88;;;;;;;;;;5114456;28;20020;-47
2022/04/01 08:03:33;;;;;;;7.55;2.65;;;;;;;;;;5113281;28;20471;-47
2022/04/01 08:05:59;;;;;;;9.80;2.63;;;;;;;;;;5114296;28;20153;-49
2022/04/01 08:08:25;;;;;;;9.82;3.33;;;;;;;;;;5113880;28;20031;-48
2022/04/01 08:10:54;;;;;;;7.35;2.95;;;;;;;;;;5113954;28;20024;-47
2022/04/01 08:13:20;;;;;;;5.60;3.05;;;;;;;;;;5113872;28;20073;-55
2022/04/01 08:15:46;;;;;;;8.43;4.43;;;;;;;;;;5113914;28;20360;-51
2022/04/01 08:18:12;;;;;;;12.05;4.03;;;;;;;;;;5114087;28;20110;-47
2022/04/01 08:20:38;;;;;;;9.40;4.10;;;;;;;;;;5113847;28;20023;-51
2022/04/01 08:23:05;;;;;;;7.68;4.38;;;;;;;;;;5095357;28;20460;-51
2022/04/01 08:25:31;;;;;;;11.65;5.10;;;;;;;;;;5113805;28;20036;-47
2022/04/01 08:27:57;;;;;;;8.77;4.63;;;;;;;;;;5113870;28;20032;-47
2022/04/01 08:30:23;;;;;;;10.57;4.68;;;;;;;;;;5113823;28;20019;-56
2022/04/01 08:32:49;;;;;;;9.07;5.40;;;;;;;;;;5113873;28;20030;-53
2022/04/01 08:35:17;;;;;;;7.50;4.70;;;;;;;;;;5113818;28;20019;-47
2022/04/01 08:37:43;;;;;;;10.85;5.47;;;;;;;;;;5113573;28;20472;-47
2022/04/01 08:40:10;;;;;;;11.55;5.13;;;;;;;;;;5113653;28;20056;-54
2022/04/01 08:42:36;;;;;;;9.07;5.03;;;;;;;;;;5113703;28;20475;-48
2022/04/01 08:45:06;;;;;;;9.15;4.95;;;;;;;;;;5113540;28;20027;-53
2022/04/01 08:47:39;;;;;;;10.55;5.47;;;;;;;;;;5113982;28;20031;-52
2022/04/01 08:50:06;;;;;;;12.15;5.80;;;;;;;;;;5113627;28;20047;-52
2022/04/01 08:52:32;;;;;;;10.95;6.50;;;;;;;;;;5113577;28;20479;-46
2022/04/01 08:55:08;;;;;;;13.93;8.50;;;;;;;;;;5113506;28;20019;-48
2022/04/01 08:57:39;;;;;;;14.65;7.90;;;;;;;;;;5113568;28;20046;-46
2022/04/01 09:00:14;;;;;;;20.60;11.60;;;;;;;;;;5113612;28;20463;-50
2022/04/01 09:02:40;;;;;;;18.15;9.13;;;;;;;;;;5113380;28;20023;-51
2022/04/01 09:05:10;;;;;;;12.10;7.80;;;;;;;;;;5113399;28;20126;-47
2022/04/01 09:07:37;;;;;;;9.05;5.25;;;;;;;;;;5113321;28;20508;-50
2022/04/01 09:10:07;;;;;;;10.35;4.85;;;;;;;;;;5113324;28;20460;-47
2022/04/01 09:12:34;;;;;;;12.20;4.88;;;;;;;;;;5113419;28;20107;-55
2022/04/01 09:15:00;;;;;;;8.65;4.65;;;;;;;;;;5116055;28;20034;-49
2022/04/01 09:17:43;;;;;;;9.68;5.50;;;;;;;;;;5117082;28;20027;-57
2022/04/01 09:20:10;;;;;;;11.07;5.72;;;;;;;;;;5117325;28;20024;-58
2022/04/01 09:22:39;;;;;;;9.38;6.28;;;;;;;;;;5117198;28;20026;-46
2022/04/01 09:25:10;;;;;;;10.48;5.78;;;;;;;;;;5116942;28;20020;-49
2022/04/01 09:27:38;;;;;;;10.23;5.78;;;;;;;;;;5117073;28;20028;-52
2022/04/01 09:30:05;;;;;;;9.65;5.72;;;;;;;;;;5117152;28;20081;-46
2022/04/01 09:32:38;;;;;;;9.02;5.85;;;;;;;;;;5116890;28;20025;-48
2022/04/01 09:35:05;;;;;;;7.45;3.85;;;;;;;;;;5117498;28;20027;-47
2022/04/01 09:38:09;;;;;;;2.47;2.17;;;;;;;;;;5116752;28;20035;-46
2022/04/01 09:40:35;;;;;;;2.38;1.73;;;;;;;;;;5116538;28;20039;-47
2022/04/01 09:43:01;;;;;;;4.72;1.27;;;;;;;;;;5116939;28;20023;-47
2022/04/01 09:45:29;;;;;;;2.63;1.38;;;;;;;;;;5116760;28;20035;-46
2022/04/01 09:48:03;;;;;;;1.98;1.20;;;;;;;;;;5116741;28;20027;-51
2022/04/01 09:50:31;;;;;;;1.98;1.48;;;;;;;;;;5116671;28;20131;-47
2022/04/01 09:53:14;;;;;;;2.15;1.55;;;;;;;;;;5116661;28;20383;-46
2022/04/01 09:55:45;;;;;;;2.10;1.50;;;;;;;;;;5116497;28;20076;-47
2022/04/01 09:58:15;;;;;;;2.70;1.40;;;;;;;;;;5116219;28;20062;-45
2022/04/01 10:00:41;;;;;;;3.92;2.00;;;;;;;;;;5116257;28;20674;-45
2022/04/01 10:03:08;;;;;;;5.82;2.28;;;;;;;;;;5116227;28;20098;-49
2022/04/01 10:05:38;;;;;;;5.05;1.50;;;;;;;;;;5097357;28;20031;-46
2022/04/01 10:08:05;;;;;;;2.92;1.27;;;;;;;;;;5116403;28;20523;-47
2022/04/01 10:10:31;;;;;;;1.65;1.30;;;;;;;;;;5115978;28;20031;-47
2022/04/01 10:13:00;;;;;;;2.60;1.60;;;;;;;;;;5116115;28;20440;-47
2022/04/01 10:15:28;;;;;;;2.03;1.50;;;;;;;;;;5116053;28;20035;-50
2022/04/01 10:17:56;;;;;;;1.55;1.45;;;;;;;;;;5115966;28;20031;-55
2022/04/01 10:20:22;;;;;;;3.15;2.03;;;;;;;;;;5115713;28;20038;-53
2022/04/01 10:22:48;;;;;;;2.20;1.75;;;;;;;;;;5115537;28;20027;-47
2022/04/01 10:25:26;;;;;;;2.20;1.55;;;;;;;;;;5115248;28;20080;-48
2022/04/01 10:27:53;;;;;;;2.35;1.70;;;;;;;;;;5115576;28;20067;-48
2022/04/01 10:30:21;;;;;;;3.13;2.00;;;;;;;;;;5115884;28;20099;-47
2022/04/01 10:32:47;;;;;;;6.35;2.67;;;;;;;;;;5115823;28;20024;-46
2022/04/01 10:35:27;;;;;;;7.82;4.85;;;;;;;;;;5115613;28;20020;-47
2022/04/01 10:38:16;;;;;;;2.75;1.67;;;;;;;;;;5115905;28;20023;-47
2022/04/01 10:40:49;;;;;;;3.45;1.55;;;;;;;;;;5104790;28;20032;-46
2022/04/01 10:43:20;;;;;;;4.47;1.98;;;;;;;;;;5115403;28;20015;-47
2022/04/01 10:46:01;;;;;;;6.63;2.30;;;;;;;;;;5115572;28;20039;-48
2022/04/01 10:51:38;;;;;;;2.22;1.90;;;;;;;;;;5115210;28;20124;-46
2022/04/01 10:54:13;;;;;;;5.45;1.67;;;;;;;;;;5115146;28;20023;-47
2022/04/01 10:57:00;;;;;;;3.35;2.15;;;;;;;;;;5115251;28;20030;-47
2022/04/01 10:59:27;;;;;;;3.47;2.10;;;;;;;;;;5115073;28;20027;-47
2022/04/01 11:01:53;;;;;;;4.63;2.45;;;;;;;;;;5115403;28;20110;-47
2022/04/01 11:04:19;;;;;;;5.18;2.75;;;;;;;;;;5114829;28;20035;-48
2022/04/01 11:06:53;;;;;;;2.55;1.80;;;;;;;;;;5115006;28;20030;-47
2022/04/01 11:09:38;;;;;;;3.03;2.22;;;;;;;;;;5115051;28;20483;-46
2022/04/01 11:12:19;;;;;;;5.15;2.60;;;;;;;;;;5115209;28;20367;-46
2022/04/01 11:15:12;;;;;;;4.63;2.78;;;;;;;;;;5114730;28;20093;-47
2022/04/01 11:17:38;;;;;;;2.92;1.58;;;;;;;;;;5106107;28;20039;-45
2022/04/01 11:20:04;;;;;;;1.98;1.20;;;;;;;;;;5114625;28;20031;-49
2022/04/01 11:22:37;;;;;;;5.05;1.02;;;;;;;;;;5114659;28;20024;-53
2022/04/01 11:25:07;;;;;;;2.70;1.75;;;;;;;;;;5114836;28;20026;-48
2022/04/01 11:27:36;;;;;;;2.30;1.20;;;;;;;;;;5114407;28;20020;-51
2022/04/01 11:30:12;;;;;;;3.13;1.42;;;;;;;;;;5114506;28;20038;-48
2022/04/01 11:32:38;;;;;;;2.60;1.02;;;;;;;;;;5114648;28;20095;-46
2022/04/01 11:35:08;;;;;;;2.85;1.88;;;;;;;;;;5114403;28;20059;-46
2022/04/01 11:37:40;;;;;;;3.55;2.38;;;;;;;;;;5095668;28;21209;-47
2022/04/01 11:40:07;;;;;;;1.73;1.40;;;;;;;;;;5096029;28;20027;-49
2022/04/01 11:42:33;;;;;;;1.48;1.05;;;;;;;;;;5114248;28;20073;-51
2022/04/01 11:44:59;;;;;;;3.08;1.98;;;;;;;;;;5114348;28;20034;-48
2022/04/01 11:47:32;;;;;;;4.72;2.30;;;;;;;;;;5114148;28;20028;-51
2022/04/01 11:50:12;;;;;;;4.15;2.78;;;;;;;;;;5113854;28;20576;-47
2022/04/01 11:52:45;;;;;;;5.70;1.88;;;;;;;;;;5114202;28;20027;-47
2022/04/01 11:55:15;;;;;;;7.88;3.92;;;;;;;;;;5113900;28;20059;-46
2022/04/01 11:57:42;;;;;;;10.23;2.95;;;;;;;;;;5095408;28;20043;-48
2022/04/01 12:00:11;;;;;;;5.60;3.63;;;;;;;;;;5113917;28;20497;-46
2022/04/01 12:02:41;;;;;;;4.00;2.90;;;;;;;;;;5113989;28;20034;-46
2022/04/01 12:05:07;;;;;;;3.75;2.72;;;;;;;;;;5113905;28;20081;-47
2022/04/01 12:10:26;;;;;;;2.75;2.05;;;;;;;;;;5114129;28;20155;-49
2022/04/01 12:12:53;;;;;;;4.40;2.90;;;;;;;;;;5113922;28;20020;-48
2022/04/01 12:15:29;;;;;;;4.03;2.50;;;;;;;;;;5113783;28;20031;-49
2022/04/01 12:17:55;;;;;;;5.43;2.60;;;;;;;;;;5113980;28;20472;-47
2022/04/01 12:20:21;;;;;;;6.82;3.47;;;;;;;;;;5113808;28;20067;-46
2022/04/01 12:22:50;;;;;;;7.32;3.58;;;;;;;;;;5114024;28;20050;-46
2022/04/01 12:25:16;;;;;;;5.95;3.20;;;;;;;;;;5113638;28;20031;-48
2022/04/01 12:27:52;;;;;;;2.13;1.77;;;;;;;;;;5113700;28;20114;-48
2022/04/01 12:30:28;;;;;;;2.58;1.85;;;;;;;;;;5113899;28;20032;-47
2022/04/01 12:32:55;;;;;;;3.38;2.30;;;;;;;;;;5113634;28;20019;-47
2022/04/01 12:35:25;;;;;;;4.70;3.08;;;;;;;;;;5113522;28;20031;-48
2022/04/01 12:38:07;;;;;;;7.25;2.75;;;;;;;;;;5113490;28;20080;-47
2022/04/01 12:40:45;;;;;;;2.50;1.67;;;;;;;;;;5113668;28;20020;-47
2022/04/01 12:43:32;;;;;;;3.35;1.77;;;;;;;;;;5113832;28;20043;-47
2022/04/01 12:46:01;;;;;;;5.78;2.10;;;;;;;;;;5113406;28;20032;-49
2022/04/01 12:48:28;;;;;;;3.85;2.40;;;;;;;;;;5113377;28;20036;-57
2022/04/01 12:51:03;;;;;;;3.50;2.17;;;;;;;;;;5117335;28;20051;-49
2022/04/01 12:53:32;;;;;;;5.10;3.00;;;;;;;;;;5117768;28;20058;-49
2022/04/01 12:56:17;;;;;;;3.20;2.30;;;;;;;;;;5117513;28;20020;-49
2022/04/01 12:58:50;;;;;;;4.82;2.42;;;;;;;;;;5117524;28;20028;-49
2022/04/01 13:01:19;;;;;;;3.97;2.45;;;;;;;;;;5117440;28;20024;-45
2022/04/01 13:03:46;;;;;;;3.47;1.80;;;;;;;;;;5117781;28;20043;-48
2022/04/01 13:06:12;;;;;;;3.90;2.05;;;;;;;;;;5117525;28;20052;-52
2022/04/01 13:08:41;;;;;;;3.97;1.70;;;;;;;;;;5117322;28;20035;-49
2022/04/01 13:11:14;;;;;;;3.25;1.73;;;;;;;;;;5117214;28;20023;-47
2022/04/01 13:13:40;;;;;;;2.67;1.73;;;;;;;;;;5117366;28;20023;-47
2022/04/01 13:16:09;;;;;;;5.93;2.60;;;;;;;;;;5117306;28;20023;-47
2022/04/01 13:18:36;;;;;;;4.80;1.90;;;;;;;;;;5117158;28;20030;-47
2022/04/01 13:21:04;;;;;;;1.70;1.17;;;;;;;;;;5117309;28;20020;-47
2022/04/01 13:23:31;;;;;;;3.75;2.30;;;;;;;;;;5117070;28;20516;-48
2022/04/01 13:25:57;;;;;;;3.05;2.17;;;;;;;;;;5116884;28;20051;-49
2022/04/01 13:28:24;;;;;;;4.07;2.40;;;;;;;;;;5116783;28;20024;-46
2022/04/01 13:30:50;;;;;;;5.47;3.40;;;;;;;;;;5116483;28;20460;-45
2022/04/01 13:33:16;;;;;;;3.08;1.98;;;;;;;;;;5094429;28;20036;-52
2022/04/01 13:35:44;;;;;;;4.07;2.55;;;;;;;;;;5114716;28;20046;-45
2022/04/01 13:38:11;;;;;;;21.52;12.27;;;;;;;;;;5115484;28;20462;-48
2022/04/01 13:40:37;;;;;;;11.30;5.57;;;;;;;;;;5114699;28;20027;-50
2022/04/01 13:43:03;;;;;;;31.55;21.58;;;;;;;;;;5097156;28;20383;-47
2022/04/01 13:45:31;;;;;;;13.57;8.27;;;;;;;;;;5114600;28;20085;-49
2022/04/01 13:47:58;;;;;;;5.22;3.30;;;;;;;;;;5114785;28;20085;-49
2022/04/01 13:50:25;;;;;;;13.18;8.68;;;;;;;;;;5102524;28;20407;-48
2022/04/01 13:52:51;;;;;;;68.38;46.13;;;;;;;;;;5093621;28;20480;-46
2022/04/01 13:55:17;;;;;;;8.60;5.68;;;;;;;;;;5094392;28;20024;-51
2022/04/01 13:57:43;;;;;;;25.65;12.55;;;;;;;;;;5093798;28;20077;-54
2022/04/01 14:00:10;;;;;;;25.05;10.93;;;;;;;;;;5093771;28;20032;-50
2022/04/01 14:02:38;;;;;;;15.88;8.27;;;;;;;;;;5094786;28;20482;-53
2022/04/01 14:05:04;;;;;;;48.60;18.35;;;;;;;;;;5094453;28;20024;-53
2022/04/01 14:07:30;;;;;;;91.15;46.15;;;;;;;;;;5094028;28;20077;-60
2022/04/01 14:09:59;;;;;;;15.90;10.45;;;;;;;;;;5094352;28;20032;-69
2022/04/01 14:12:26;;;;;;;4.65;2.50;;;;;;;;;;5094803;28;20069;-53
2022/04/01 14:14:52;;;;;;;4.05;2.85;;;;;;;;;;5069867;28;20040;-51
2022/04/01 14:17:19;;;;;;;5.00;2.40;;;;;;;;;;5064455;28;20024;-55
2022/04/01 14:19:45;;;;;;;5.25;2.50;;;;;;;;;;5063211;28;20585;-54
2022/04/01 14:22:11;;;;;;;7.97;3.80;;;;;;;;;;5063270;28;20062;-52
2022/04/01 14:24:37;;;;;;;4.03;2.25;;;;;;;;;;5062740;28;20043;-52
2022/04/01 14:27:03;;;;;;;7.20;3.63;;;;;;;;;;5062620;28;20024;-50
2022/04/01 14:32:14;;;;;;;9.07;4.10;;;;;;;;;;5062853;28;20109;-52
2022/04/01 14:34:41;;;;;;;3.58;2.58;;;;;;;;;;5064007;28;20052;-54
2022/04/01 14:37:08;;;;;;;8.73;5.63;;;;;;;;;;5062853;28;20021;-49
2022/04/01 14:39:34;;;;;;;21.25;14.95;;;;;;;;;;5062888;28;20024;-49
2022/04/01 14:42:01;;;;;;;32.03;18.73;;;;;;;;;;5062820;28;20066;-55
2022/04/01 14:44:30;;;;;;;21.45;13.10;;;;;;;;;;5062326;28;20025;-49
2022/04/01 14:46:56;;;;;;;12.15;6.40;;;;;;;;;;5062302;28;20162;-52
2022/04/01 14:49:22;;;;;;;17.23;10.63;;;;;;;;;;5062450;28;20366;-49
2022/04/01 14:51:49;;;;;;;16.10;10.77;;;;;;;;;;5060504;28;20071;-52
2022/04/01 14:54:18;;;;;;;9.40;6.45;;;;;;;;;;5064811;28;21124;-50
2022/04/01 14:56:44;;;;;;;9.77;6.63;;;;;;;;;;5065287;28;20127;-48
2022/04/01 14:59:11;;;;;;;25.38;14.45;;;;;;;;;;5063799;28;20020;-52
2022/04/01 15:01:37;;;;;;;18.17;10.85;;;;;;;;;;5063624;28;20077;-48
2022/04/01 15:04:03;;;;;;;5.18;3.65;;;;;;;;;;5063768;28;20020;-48